sensor_id;sensor_type;location;lat;lon;timestamp;P1;durP1;ratioP1;P2;durP2;ratioP2
29938;SDS011;16799;50.844;5.304;2023-04-19T00:00:05;36.23;;;21.90;;
29938;SDS011;16799;50.844;5.304;2023-04-19T00:02:35;33.37;;;22.00;;
29938;SDS011;16799;50.844;5.304;2023-04-19T00:05:00;28.27;;;21.20;;
29938;SDS011;16799;50.844;5.304;2023-04-19T00:07:26;30.53;;;22.43;;
29938;SDS011;16799;50.844;5.304;2023-04-19T00:09:52;35.50;;;19.87;;
29938;SDS011;16799;50.844;5.304;2023-04-19T00:12:17;31.00;;;21.30;;
29938;SDS011;16799;50.844;5.304;2023-04-19T00:14:43;23.93;;;19.67;;
29938;SDS011;16799;50.844;5.304;2023-04-19T00:17:09;27.03;;;21.20;;
29938;SDS011;16799;50.844;5.304;2023-04-19T00:19:35;36.83;;;21.10;;
29938;SDS011;16799;50.844;5.304;2023-04-19T00:22:02;28.90;;;22.00;;
29938;SDS011;16799;50.844;5.304;2023-04-19T00:24:27;31.03;;;22.47;;
29938;SDS011;16799;50.844;5.304;2023-04-19T00:26:53;30.33;;;20.30;;
29938;SDS011;16799;50.844;5.304;2023-04-19T00:29:19;28.83;;;20.10;;
29938;SDS011;16799;50.844;5.304;2023-04-19T00:31:44;29.37;;;19.97;;
29938;SDS011;16799;50.844;5.304;2023-04-19T00:34:10;31.13;;;20.70;;
29938;SDS011;16799;50.844;5.304;2023-04-19T00:36:36;26.50;;;19.67;;
29938;SDS011;16799;50.844;5.304;2023-04-19T00:39:02;27.87;;;20.57;;
29938;SDS011;16799;50.844;5.304;2023-04-19T00:41:27;24.13;;;19.50;;
29938;SDS011;16799;50.844;5.304;2023-04-19T00:43:53;25.60;;;21.17;;
29938;SDS011;16799;50.844;5.304;2023-04-19T00:46:19;23.97;;;19.87;;
29938;SDS011;16799;50.844;5.304;2023-04-19T00:48:45;26.33;;;20.33;;
29938;SDS011;16799;50.844;5.304;2023-04-19T00:51:12;26.43;;;20.50;;
29938;SDS011;16799;50.844;5.304;2023-04-19T00:53:38;24.77;;;19.40;;
29938;SDS011;16799;50.844;5.304;2023-04-19T00:56:04;30.97;;;19.30;;
29938;SDS011;16799;50.844;5.304;2023-04-19T00:58:31;24.40;;;18.40;;
29938;SDS011;16799;50.844;5.304;2023-04-19T01:00:57;28.57;;;20.00;;
29938;SDS011;16799;50.844;5.304;2023-04-19T01:03:23;31.93;;;19.13;;
29938;SDS011;16799;50.844;5.304;2023-04-19T01:05:51;25.20;;;20.00;;
29938;SDS011;16799;50.844;5.304;2023-04-19T01:08:17;30.67;;;20.47;;
29938;SDS011;16799;50.844;5.304;2023-04-19T01:10:43;26.03;;;20.30;;
29938;SDS011;16799;50.844;5.304;2023-04-19T01:13:09;25.93;;;19.87;;
29938;SDS011;16799;50.844;5.304;2023-04-19T01:15:35;25.57;;;20.37;;
29938;SDS011;16799;50.844;5.304;2023-04-19T01:18:00;29.37;;;21.33;;
29938;SDS011;16799;50.844;5.304;2023-04-19T01:20:26;22.93;;;19.10;;
29938;SDS011;16799;50.844;5.304;2023-04-19T01:22:52;42.63;;;21.20;;
29938;SDS011;16799;50.844;5.304;2023-04-19T01:25:18;28.53;;;18.90;;
29938;SDS011;16799;50.844;5.304;2023-04-19T01:27:43;26.63;;;19.17;;
29938;SDS011;16799;50.844;5.304;2023-04-19T01:30:09;24.40;;;19.57;;
29938;SDS011;16799;50.844;5.304;2023-04-19T01:32:35;24.60;;;18.93;;
29938;SDS011;16799;50.844;5.304;2023-04-19T01:35:01;28.27;;;19.60;;
29938;SDS011;16799;50.844;5.304;2023-04-19T01:37:27;22.00;;;17.23;;
29938;SDS011;16799;50.844;5.304;2023-04-19T01:39:52;24.70;;;18.90;;
29938;SDS011;16799;50.844;5.304;2023-04-19T01:42:18;28.07;;;20.00;;
29938;SDS011;16799;50.844;5.304;2023-04-19T01:44:44;24.00;;;19.90;;
29938;SDS011;16799;50.844;5.304;2023-04-19T01:47:09;29.83;;;21.47;;
29938;SDS011;16799;50.844;5.304;2023-04-19T01:49:35;33.10;;;19.50;;
29938;SDS011;16799;50.844;5.304;2023-04-19T01:52:01;30.83;;;22.10;;
29938;SDS011;16799;50.844;5.304;2023-04-19T01:54:26;27.10;;;19.90;;
29938;SDS011;16799;50.844;5.304;2023-04-19T01:56:52;23.30;;;18.80;;
29938;SDS011;16799;50.844;5.304;2023-04-19T01:59:18;23.30;;;18.17;;
29938;SDS011;16799;50.844;5.304;2023-04-19T02:01:43;24.63;;;18.03;;
29938;SDS011;16799;50.844;5.304;2023-04-19T02:04:09;23.17;;;18.47;;
29938;SDS011;16799;50.844;5.304;2023-04-19T02:06:35;29.53;;;19.80;;
29938;SDS011;16799;50.844;5.304;2023-04-19T02:09:00;22.83;;;17.80;;
29938;SDS011;16799;50.844;5.304;2023-04-19T02:11:26;19.40;;;16.23;;
29938;SDS011;16799;50.844;5.304;2023-04-19T02:13:52;23.93;;;18.40;;
29938;SDS011;16799;50.844;5.304;2023-04-19T02:16:17;22.73;;;17.50;;
29938;SDS011;16799;50.844;5.304;2023-04-19T02:18:43;26.40;;;19.40;;
29938;SDS011;16799;50.844;5.304;2023-04-19T02:21:10;26.73;;;20.17;;
29938;SDS011;16799;50.844;5.304;2023-04-19T02:23:36;23.37;;;19.20;;
29938;SDS011;16799;50.844;5.304;2023-04-19T02:26:02;26.03;;;16.83;;
29938;SDS011;16799;50.844;5.304;2023-04-19T02:28:28;23.33;;;16.00;;
29938;SDS011;16799;50.844;5.304;2023-04-19T02:30:54;22.40;;;16.67;;
29938;SDS011;16799;50.844;5.304;2023-04-19T02:33:20;23.70;;;17.30;;
29938;SDS011;16799;50.844;5.304;2023-04-19T02:35:46;24.27;;;17.60;;
29938;SDS011;16799;50.844;5.304;2023-04-19T02:38:12;24.20;;;18.17;;
29938;SDS011;16799;50.844;5.304;2023-04-19T02:40:37;25.33;;;19.17;;
29938;SDS011;16799;50.844;5.304;2023-04-19T02:43:03;19.67;;;17.07;;
29938;SDS011;16799;50.844;5.304;2023-04-19T02:45:29;34.67;;;19.77;;
29938;SDS011;16799;50.844;5.304;2023-04-19T02:47:54;26.40;;;18.93;;
29938;SDS011;16799;50.844;5.304;2023-04-19T02:50:20;26.10;;;18.53;;
29938;SDS011;16799;50.844;5.304;2023-04-19T02:52:46;26.50;;;17.33;;
29938;SDS011;16799;50.844;5.304;2023-04-19T02:55:11;25.50;;;19.33;;
29938;SDS011;16799;50.844;5.304;2023-04-19T02:57:37;29.07;;;18.90;;
29938;SDS011;16799;50.844;5.304;2023-04-19T03:00:03;28.33;;;19.33;;
29938;SDS011;16799;50.844;5.304;2023-04-19T03:02:29;27.90;;;19.10;;
29938;SDS011;16799;50.844;5.304;2023-04-19T03:04:55;23.40;;;18.80;;
29938;SDS011;16799;50.844;5.304;2023-04-19T03:07:21;21.53;;;17.87;;
29938;SDS011;16799;50.844;5.304;2023-04-19T03:09:47;30.40;;;20.13;;
29938;SDS011;16799;50.844;5.304;2023-04-19T03:12:13;26.80;;;20.13;;
29938;SDS011;16799;50.844;5.304;2023-04-19T03:14:38;26.30;;;19.93;;
29938;SDS011;16799;50.844;5.304;2023-04-19T03:17:04;25.53;;;20.33;;
29938;SDS011;16799;50.844;5.304;2023-04-19T03:19:30;22.77;;;17.70;;
29938;SDS011;16799;50.844;5.304;2023-04-19T03:21:55;23.57;;;18.17;;
29938;SDS011;16799;50.844;5.304;2023-04-19T03:24:28;21.83;;;17.90;;
29938;SDS011;16799;50.844;5.304;2023-04-19T03:26:54;28.83;;;19.10;;
29938;SDS011;16799;50.844;5.304;2023-04-19T03:29:23;28.07;;;18.53;;
29938;SDS011;16799;50.844;5.304;2023-04-19T03:31:49;27.73;;;20.23;;
29938;SDS011;16799;50.844;5.304;2023-04-19T03:34:14;29.27;;;18.97;;
29938;SDS011;16799;50.844;5.304;2023-04-19T03:36:40;26.83;;;20.53;;
29938;SDS011;16799;50.844;5.304;2023-04-19T03:39:06;25.60;;;18.43;;
29938;SDS011;16799;50.844;5.304;2023-04-19T03:41:32;26.63;;;19.60;;
29938;SDS011;16799;50.844;5.304;2023-04-19T03:43:57;30.97;;;20.13;;
29938;SDS011;16799;50.844;5.304;2023-04-19T03:46:24;29.97;;;21.03;;
29938;SDS011;16799;50.844;5.304;2023-04-19T03:48:49;32.03;;;21.83;;
29938;SDS011;16799;50.844;5.304;2023-04-19T03:51:16;26.53;;;20.43;;
29938;SDS011;16799;50.844;5.304;2023-04-19T03:53:42;26.80;;;21.60;;
29938;SDS011;16799;50.844;5.304;2023-04-19T03:56:07;30.47;;;20.57;;
29938;SDS011;16799;50.844;5.304;2023-04-19T03:58:33;31.30;;;21.77;;
29938;SDS011;16799;50.844;5.304;2023-04-19T04:00:59;30.00;;;21.70;;
29938;SDS011;16799;50.844;5.304;2023-04-19T04:03:25;28.47;;;19.20;;
29938;SDS011;16799;50.844;5.304;2023-04-19T04:05:51;31.43;;;21.33;;
29938;SDS011;16799;50.844;5.304;2023-04-19T04:08:17;28.80;;;20.60;;
29938;SDS011;16799;50.844;5.304;2023-04-19T04:10:42;41.50;;;22.33;;
29938;SDS011;16799;50.844;5.304;2023-04-19T04:13:08;33.67;;;24.17;;
29938;SDS011;16799;50.844;5.304;2023-04-19T04:15:34;28.37;;;22.03;;
29938;SDS011;16799;50.844;5.304;2023-04-19T04:17:59;31.87;;;20.53;;
29938;SDS011;16799;50.844;5.304;2023-04-19T04:20:25;29.37;;;21.00;;
29938;SDS011;16799;50.844;5.304;2023-04-19T04:22:51;32.97;;;20.83;;
29938;SDS011;16799;50.844;5.304;2023-04-19T04:25:17;29.80;;;21.20;;
29938;SDS011;16799;50.844;5.304;2023-04-19T04:27:43;33.07;;;23.07;;
29938;SDS011;16799;50.844;5.304;2023-04-19T04:30:09;33.37;;;21.67;;
29938;SDS011;16799;50.844;5.304;2023-04-19T04:32:35;36.83;;;22.67;;
29938;SDS011;16799;50.844;5.304;2023-04-19T04:35:02;33.13;;;22.50;;
29938;SDS011;16799;50.844;5.304;2023-04-19T04:37:30;33.80;;;21.53;;
29938;SDS011;16799;50.844;5.304;2023-04-19T04:39:58;36.23;;;24.13;;
29938;SDS011;16799;50.844;5.304;2023-04-19T04:42:24;34.47;;;23.77;;
29938;SDS011;16799;50.844;5.304;2023-04-19T04:44:50;40.60;;;22.93;;
29938;SDS011;16799;50.844;5.304;2023-04-19T04:47:16;30.40;;;21.70;;
29938;SDS011;16799;50.844;5.304;2023-04-19T04:49:42;29.30;;;19.60;;
29938;SDS011;16799;50.844;5.304;2023-04-19T04:52:07;31.27;;;19.53;;
29938;SDS011;16799;50.844;5.304;2023-04-19T04:54:33;30.90;;;19.87;;
29938;SDS011;16799;50.844;5.304;2023-04-19T04:56:59;32.57;;;22.20;;
29938;SDS011;16799;50.844;5.304;2023-04-19T04:59:25;34.83;;;20.43;;
29938;SDS011;16799;50.844;5.304;2023-04-19T05:01:51;32.83;;;22.43;;
29938;SDS011;16799;50.844;5.304;2023-04-19T05:04:17;36.90;;;22.03;;
29938;SDS011;16799;50.844;5.304;2023-04-19T05:06:43;33.57;;;22.47;;
29938;SDS011;16799;50.844;5.304;2023-04-19T05:09:09;33.70;;;22.63;;
29938;SDS011;16799;50.844;5.304;2023-04-19T05:11:35;31.13;;;21.30;;
29938;SDS011;16799;50.844;5.304;2023-04-19T05:14:01;32.93;;;22.87;;
29938;SDS011;16799;50.844;5.304;2023-04-19T05:16:27;31.80;;;20.87;;
29938;SDS011;16799;50.844;5.304;2023-04-19T05:18:53;39.33;;;23.23;;
29938;SDS011;16799;50.844;5.304;2023-04-19T05:21:20;34.37;;;21.40;;
29938;SDS011;16799;50.844;5.304;2023-04-19T05:23:46;30.43;;;21.77;;
29938;SDS011;16799;50.844;5.304;2023-04-19T05:26:11;29.77;;;21.23;;
29938;SDS011;16799;50.844;5.304;2023-04-19T05:28:39;33.83;;;21.40;;
29938;SDS011;16799;50.844;5.304;2023-04-19T05:31:06;31.03;;;20.93;;
29938;SDS011;16799;50.844;5.304;2023-04-19T05:33:33;32.20;;;21.57;;
29938;SDS011;16799;50.844;5.304;2023-04-19T05:35:58;29.33;;;21.63;;
29938;SDS011;16799;50.844;5.304;2023-04-19T05:38:24;32.70;;;19.90;;
29938;SDS011;16799;50.844;5.304;2023-04-19T05:40:50;30.63;;;23.40;;
29938;SDS011;16799;50.844;5.304;2023-04-19T05:43:15;34.50;;;23.60;;
29938;SDS011;16799;50.844;5.304;2023-04-19T05:45:41;32.37;;;20.30;;
29938;SDS011;16799;50.844;5.304;2023-04-19T05:48:07;37.43;;;24.87;;
29938;SDS011;16799;50.844;5.304;2023-04-19T05:50:33;33.77;;;22.40;;
29938;SDS011;16799;50.844;5.304;2023-04-19T05:53:00;29.07;;;20.90;;
29938;SDS011;16799;50.844;5.304;2023-04-19T05:55:26;27.87;;;20.73;;
29938;SDS011;16799;50.844;5.304;2023-04-19T05:57:52;31.93;;;22.33;;
29938;SDS011;16799;50.844;5.304;2023-04-19T06:00:18;25.60;;;18.93;;
29938;SDS011;16799;50.844;5.304;2023-04-19T06:02:43;30.20;;;21.53;;
29938;SDS011;16799;50.844;5.304;2023-04-19T06:05:09;32.27;;;21.50;;
29938;SDS011;16799;50.844;5.304;2023-04-19T06:07:35;28.80;;;18.63;;
29938;SDS011;16799;50.844;5.304;2023-04-19T06:10:00;35.70;;;22.33;;
29938;SDS011;16799;50.844;5.304;2023-04-19T06:12:26;29.07;;;22.27;;
29938;SDS011;16799;50.844;5.304;2023-04-19T06:14:52;27.10;;;19.73;;
29938;SDS011;16799;50.844;5.304;2023-04-19T06:17:18;23.43;;;19.93;;
29938;SDS011;16799;50.844;5.304;2023-04-19T06:19:48;31.67;;;18.43;;
29938;SDS011;16799;50.844;5.304;2023-04-19T06:22:14;32.83;;;19.67;;
29938;SDS011;16799;50.844;5.304;2023-04-19T06:24:40;27.03;;;20.20;;
29938;SDS011;16799;50.844;5.304;2023-04-19T06:27:08;30.83;;;19.50;;
29938;SDS011;16799;50.844;5.304;2023-04-19T06:29:33;26.80;;;18.63;;
29938;SDS011;16799;50.844;5.304;2023-04-19T06:31:59;29.13;;;19.43;;
29938;SDS011;16799;50.844;5.304;2023-04-19T06:34:25;33.77;;;22.80;;
29938;SDS011;16799;50.844;5.304;2023-04-19T06:36:50;29.37;;;20.40;;
29938;SDS011;16799;50.844;5.304;2023-04-19T06:39:16;24.70;;;18.77;;
29938;SDS011;16799;50.844;5.304;2023-04-19T06:41:42;25.77;;;18.57;;
29938;SDS011;16799;50.844;5.304;2023-04-19T06:44:07;22.90;;;18.70;;
29938;SDS011;16799;50.844;5.304;2023-04-19T06:46:33;30.37;;;19.30;;
29938;SDS011;16799;50.844;5.304;2023-04-19T06:48:59;25.30;;;19.00;;
29938;SDS011;16799;50.844;5.304;2023-04-19T06:51:25;24.60;;;19.70;;
29938;SDS011;16799;50.844;5.304;2023-04-19T06:53:50;26.40;;;17.67;;
29938;SDS011;16799;50.844;5.304;2023-04-19T06:56:16;25.87;;;18.80;;
29938;SDS011;16799;50.844;5.304;2023-04-19T06:58:42;28.40;;;20.33;;
29938;SDS011;16799;50.844;5.304;2023-04-19T07:01:07;26.10;;;19.13;;
29938;SDS011;16799;50.844;5.304;2023-04-19T07:03:33;24.50;;;17.23;;
29938;SDS011;16799;50.844;5.304;2023-04-19T07:05:59;30.23;;;19.23;;
29938;SDS011;16799;50.844;5.304;2023-04-19T07:08:25;30.33;;;18.73;;
29938;SDS011;16799;50.844;5.304;2023-04-19T07:10:51;23.50;;;18.27;;
29938;SDS011;16799;50.844;5.304;2023-04-19T07:13:17;27.27;;;17.37;;
29938;SDS011;16799;50.844;5.304;2023-04-19T07:15:43;25.77;;;18.60;;
29938;SDS011;16799;50.844;5.304;2023-04-19T07:18:08;30.80;;;19.53;;
29938;SDS011;16799;50.844;5.304;2023-04-19T07:20:35;24.03;;;16.43;;
29938;SDS011;16799;50.844;5.304;2023-04-19T07:23:00;26.73;;;16.60;;
29938;SDS011;16799;50.844;5.304;2023-04-19T07:25:26;21.70;;;18.60;;
29938;SDS011;16799;50.844;5.304;2023-04-19T07:27:52;19.07;;;15.23;;
29938;SDS011;16799;50.844;5.304;2023-04-19T07:30:18;21.57;;;16.40;;
29938;SDS011;16799;50.844;5.304;2023-04-19T07:32:44;18.87;;;15.80;;
29938;SDS011;16799;50.844;5.304;2023-04-19T07:35:10;19.20;;;14.90;;
29938;SDS011;16799;50.844;5.304;2023-04-19T07:37:36;20.77;;;14.30;;
29938;SDS011;16799;50.844;5.304;2023-04-19T07:40:02;15.17;;;13.07;;
29938;SDS011;16799;50.844;5.304;2023-04-19T07:42:29;19.80;;;16.30;;
29938;SDS011;16799;50.844;5.304;2023-04-19T07:44:55;16.17;;;11.70;;
29938;SDS011;16799;50.844;5.304;2023-04-19T07:47:20;18.43;;;13.23;;
29938;SDS011;16799;50.844;5.304;2023-04-19T07:49:46;22.00;;;14.40;;
29938;SDS011;16799;50.844;5.304;2023-04-19T07:52:15;21.20;;;14.00;;
29938;SDS011;16799;50.844;5.304;2023-04-19T07:54:42;19.13;;;13.30;;
29938;SDS011;16799;50.844;5.304;2023-04-19T07:57:08;16.27;;;13.97;;
29938;SDS011;16799;50.844;5.304;2023-04-19T07:59:33;14.07;;;12.13;;
29938;SDS011;16799;50.844;5.304;2023-04-19T08:01:59;22.30;;;14.10;;
29938;SDS011;16799;50.844;5.304;2023-04-19T08:04:25;20.83;;;12.77;;
29938;SDS011;16799;50.844;5.304;2023-04-19T08:06:50;17.63;;;14.60;;
29938;SDS011;16799;50.844;5.304;2023-04-19T08:09:17;20.57;;;14.43;;
29938;SDS011;16799;50.844;5.304;2023-04-19T08:11:43;18.77;;;12.23;;
29938;SDS011;16799;50.844;5.304;2023-04-19T08:14:08;16.47;;;14.30;;
29938;SDS011;16799;50.844;5.304;2023-04-19T08:16:34;13.47;;;12.17;;
29938;SDS011;16799;50.844;5.304;2023-04-19T08:19:00;19.13;;;13.97;;
29938;SDS011;16799;50.844;5.304;2023-04-19T08:21:25;18.57;;;13.27;;
29938;SDS011;16799;50.844;5.304;2023-04-19T08:23:51;17.70;;;13.90;;
29938;SDS011;16799;50.844;5.304;2023-04-19T08:26:17;15.47;;;12.93;;
29938;SDS011;16799;50.844;5.304;2023-04-19T08:28:43;16.87;;;12.33;;
29938;SDS011;16799;50.844;5.304;2023-04-19T08:31:08;18.53;;;12.80;;
29938;SDS011;16799;50.844;5.304;2023-04-19T08:33:34;15.80;;;11.27;;
29938;SDS011;16799;50.844;5.304;2023-04-19T08:36:00;14.77;;;10.77;;
29938;SDS011;16799;50.844;5.304;2023-04-19T08:38:26;16.50;;;11.13;;
29938;SDS011;16799;50.844;5.304;2023-04-19T08:40:52;11.83;;;10.63;;
29938;SDS011;16799;50.844;5.304;2023-04-19T08:43:22;12.53;;;10.73;;
29938;SDS011;16799;50.844;5.304;2023-04-19T08:45:49;9.83;;;9.00;;
29938;SDS011;16799;50.844;5.304;2023-04-19T08:48:15;13.20;;;9.00;;
29938;SDS011;16799;50.844;5.304;2023-04-19T08:50:42;10.23;;;8.50;;
29938;SDS011;16799;50.844;5.304;2023-04-19T08:53:10;11.20;;;10.03;;
29938;SDS011;16799;50.844;5.304;2023-04-19T08:55:42;11.60;;;10.33;;
29938;SDS011;16799;50.844;5.304;2023-04-19T08:58:07;16.57;;;9.43;;
29938;SDS011;16799;50.844;5.304;2023-04-19T09:00:36;9.77;;;8.50;;
29938;SDS011;16799;50.844;5.304;2023-04-19T09:03:03;10.03;;;8.10;;
29938;SDS011;16799;50.844;5.304;2023-04-19T09:05:31;9.80;;;8.80;;
29938;SDS011;16799;50.844;5.304;2023-04-19T09:10:55;9.67;;;8.67;;
29938;SDS011;16799;50.844;5.304;2023-04-19T09:13:22;9.53;;;8.60;;
29938;SDS011;16799;50.844;5.304;2023-04-19T09:15:48;10.23;;;8.80;;
29938;SDS011;16799;50.844;5.304;2023-04-19T09:18:15;9.40;;;7.70;;
29938;SDS011;16799;50.844;5.304;2023-04-19T09:20:42;9.83;;;8.80;;
29938;SDS011;16799;50.844;5.304;2023-04-19T09:23:12;10.30;;;8.57;;
29938;SDS011;16799;50.844;5.304;2023-04-19T09:28:28;8.97;;;8.10;;
29938;SDS011;16799;50.844;5.304;2023-04-19T09:30:56;11.17;;;9.03;;
29938;SDS011;16799;50.844;5.304;2023-04-19T09:33:32;10.47;;;9.47;;
29938;SDS011;16799;50.844;5.304;2023-04-19T09:35:59;11.47;;;9.03;;
29938;SDS011;16799;50.844;5.304;2023-04-19T09:38:25;11.27;;;8.87;;
29938;SDS011;16799;50.844;5.304;2023-04-19T09:40:51;10.77;;;8.97;;
29938;SDS011;16799;50.844;5.304;2023-04-19T09:43:22;17.70;;;9.23;;
29938;SDS011;16799;50.844;5.304;2023-04-19T09:45:51;9.50;;;8.00;;
29938;SDS011;16799;50.844;5.304;2023-04-19T09:48:16;12.03;;;8.53;;
29938;SDS011;16799;50.844;5.304;2023-04-19T09:50:52;10.53;;;8.70;;
29938;SDS011;16799;50.844;5.304;2023-04-19T09:53:20;11.03;;;9.20;;
29938;SDS011;16799;50.844;5.304;2023-04-19T09:55:46;9.00;;;8.10;;
29938;SDS011;16799;50.844;5.304;2023-04-19T09:58:12;9.63;;;8.67;;
29938;SDS011;16799;50.844;5.304;2023-04-19T10:00:45;10.50;;;9.40;;
29938;SDS011;16799;50.844;5.304;2023-04-19T10:03:13;10.43;;;9.60;;
29938;SDS011;16799;50.844;5.304;2023-04-19T10:05:41;11.20;;;10.10;;
29938;SDS011;16799;50.844;5.304;2023-04-19T10:08:08;15.20;;;8.77;;
29938;SDS011;16799;50.844;5.304;2023-04-19T10:10:35;10.73;;;9.67;;
29938;SDS011;16799;50.844;5.304;2023-04-19T10:13:02;9.57;;;8.67;;
29938;SDS011;16799;50.844;5.304;2023-04-19T10:15:31;10.17;;;9.17;;
29938;SDS011;16799;50.844;5.304;2023-04-19T10:17:58;11.13;;;8.60;;
29938;SDS011;16799;50.844;5.304;2023-04-19T10:20:32;12.07;;;9.20;;
29938;SDS011;16799;50.844;5.304;2023-04-19T10:23:06;9.80;;;8.87;;
29938;SDS011;16799;50.844;5.304;2023-04-19T10:25:35;9.97;;;8.97;;
29938;SDS011;16799;50.844;5.304;2023-04-19T10:28:01;11.60;;;9.40;;
29938;SDS011;16799;50.844;5.304;2023-04-19T10:30:27;13.50;;;7.83;;
29938;SDS011;16799;50.844;5.304;2023-04-19T10:32:54;23.10;;;10.10;;
29938;SDS011;16799;50.844;5.304;2023-04-19T10:43:28;6.83;;;6.33;;
29938;SDS011;16799;50.844;5.304;2023-04-19T10:48:55;8.73;;;7.90;;
29938;SDS011;16799;50.844;5.304;2023-04-19T10:51:24;8.03;;;7.33;;
29938;SDS011;16799;50.844;5.304;2023-04-19T10:53:56;7.47;;;6.83;;
29938;SDS011;16799;50.844;5.304;2023-04-19T11:04:03;7.67;;;7.07;;
29938;SDS011;16799;50.844;5.304;2023-04-19T11:06:30;12.90;;;6.77;;
29938;SDS011;16799;50.844;5.304;2023-04-19T11:08:59;11.77;;;7.00;;
29938;SDS011;16799;50.844;5.304;2023-04-19T11:11:26;7.37;;;6.77;;
29938;SDS011;16799;50.844;5.304;2023-04-19T11:13:53;18.83;;;8.37;;
29938;SDS011;16799;50.844;5.304;2023-04-19T11:16:20;7.30;;;6.67;;
29938;SDS011;16799;50.844;5.304;2023-04-19T11:18:46;9.90;;;7.87;;
29938;SDS011;16799;50.844;5.304;2023-04-19T11:21:12;12.33;;;7.40;;
29938;SDS011;16799;50.844;5.304;2023-04-19T11:23:38;9.60;;;6.00;;
29938;SDS011;16799;50.844;5.304;2023-04-19T11:26:05;7.43;;;6.47;;
29938;SDS011;16799;50.844;5.304;2023-04-19T11:28:34;7.00;;;6.23;;
29938;SDS011;16799;50.844;5.304;2023-04-19T11:31:00;14.63;;;6.43;;
29938;SDS011;16799;50.844;5.304;2023-04-19T11:33:31;5.40;;;4.90;;
29938;SDS011;16799;50.844;5.304;2023-04-19T11:36:01;5.03;;;4.63;;
29938;SDS011;16799;50.844;5.304;2023-04-19T11:38:27;11.20;;;6.90;;
29938;SDS011;16799;50.844;5.304;2023-04-19T11:40:57;10.57;;;6.33;;
29938;SDS011;16799;50.844;5.304;2023-04-19T11:43:33;5.80;;;5.03;;
29938;SDS011;16799;50.844;5.304;2023-04-19T11:46:04;5.70;;;5.00;;
29938;SDS011;16799;50.844;5.304;2023-04-19T11:48:33;17.53;;;5.80;;
29938;SDS011;16799;50.844;5.304;2023-04-19T11:50:59;10.63;;;5.17;;
29938;SDS011;16799;50.844;5.304;2023-04-19T11:53:25;6.10;;;5.50;;
29938;SDS011;16799;50.844;5.304;2023-04-19T11:55:53;6.40;;;5.80;;
29938;SDS011;16799;50.844;5.304;2023-04-19T11:58:29;5.17;;;4.67;;
29938;SDS011;16799;50.844;5.304;2023-04-19T12:01:05;8.30;;;4.07;;
29938;SDS011;16799;50.844;5.304;2023-04-19T12:03:44;4.77;;;4.30;;
29938;SDS011;16799;50.844;5.304;2023-04-19T12:06:17;8.13;;;5.00;;
29938;SDS011;16799;50.844;5.304;2023-04-19T12:08:48;4.30;;;3.90;;
29938;SDS011;16799;50.844;5.304;2023-04-19T12:11:16;3.80;;;3.60;;
29938;SDS011;16799;50.844;5.304;2023-04-19T12:13:43;7.50;;;4.50;;
29938;SDS011;16799;50.844;5.304;2023-04-19T12:16:09;3.97;;;3.77;;
29938;SDS011;16799;50.844;5.304;2023-04-19T12:18:42;3.97;;;3.47;;
29938;SDS011;16799;50.844;5.304;2023-04-19T12:21:27;5.87;;;3.43;;
29938;SDS011;16799;50.844;5.304;2023-04-19T12:23:56;6.47;;;4.07;;
29938;SDS011;16799;50.844;5.304;2023-04-19T12:26:22;4.17;;;3.87;;
29938;SDS011;16799;50.844;5.304;2023-04-19T12:28:49;5.10;;;3.43;;
29938;SDS011;16799;50.844;5.304;2023-04-19T12:31:14;6.67;;;3.90;;
29938;SDS011;16799;50.844;5.304;2023-04-19T12:33:40;6.07;;;2.93;;
29938;SDS011;16799;50.844;5.304;2023-04-19T12:36:06;3.20;;;2.90;;
29938;SDS011;16799;50.844;5.304;2023-04-19T12:38:32;3.50;;;3.20;;
29938;SDS011;16799;50.844;5.304;2023-04-19T12:40:57;3.80;;;3.50;;
29938;SDS011;16799;50.844;5.304;2023-04-19T12:43:23;4.03;;;3.20;;
29938;SDS011;16799;50.844;5.304;2023-04-19T12:45:50;5.87;;;3.80;;
29938;SDS011;16799;50.844;5.304;2023-04-19T12:48:15;3.17;;;2.97;;
29938;SDS011;16799;50.844;5.304;2023-04-19T12:50:41;4.93;;;3.70;;
29938;SDS011;16799;50.844;5.304;2023-04-19T12:53:06;7.20;;;3.30;;
29938;SDS011;16799;50.844;5.304;2023-04-19T12:55:33;7.10;;;3.10;;
29938;SDS011;16799;50.844;5.304;2023-04-19T12:57:59;2.97;;;2.77;;
29938;SDS011;16799;50.844;5.304;2023-04-19T13:00:24;3.40;;;3.20;;
29938;SDS011;16799;50.844;5.304;2023-04-19T13:02:50;8.63;;;3.40;;
29938;SDS011;16799;50.844;5.304;2023-04-19T13:05:16;3.70;;;2.43;;
29938;SDS011;16799;50.844;5.304;2023-04-19T13:07:42;9.10;;;3.23;;
29938;SDS011;16799;50.844;5.304;2023-04-19T13:10:07;3.60;;;3.30;;
29938;SDS011;16799;50.844;5.304;2023-04-19T13:12:34;5.67;;;3.57;;
29938;SDS011;16799;50.844;5.304;2023-04-19T13:15:00;4.73;;;3.23;;
29938;SDS011;16799;50.844;5.304;2023-04-19T13:17:26;2.80;;;2.60;;
29938;SDS011;16799;50.844;5.304;2023-04-19T13:19:52;10.80;;;2.97;;
29938;SDS011;16799;50.844;5.304;2023-04-19T13:22:17;9.03;;;2.40;;
29938;SDS011;16799;50.844;5.304;2023-04-19T13:24:43;2.80;;;2.60;;
29938;SDS011;16799;50.844;5.304;2023-04-19T13:27:08;4.23;;;3.17;;
29938;SDS011;16799;50.844;5.304;2023-04-19T13:29:34;2.50;;;2.23;;
29938;SDS011;16799;50.844;5.304;2023-04-19T13:32:00;4.20;;;2.50;;
29938;SDS011;16799;50.844;5.304;2023-04-19T13:34:25;2.80;;;2.53;;
29938;SDS011;16799;50.844;5.304;2023-04-19T13:36:51;4.47;;;2.63;;
29938;SDS011;16799;50.844;5.304;2023-04-19T13:39:17;4.47;;;1.93;;
29938;SDS011;16799;50.844;5.304;2023-04-19T13:41:42;7.30;;;3.00;;
29938;SDS011;16799;50.844;5.304;2023-04-19T13:44:08;8.50;;;3.80;;
29938;SDS011;16799;50.844;5.304;2023-04-19T13:46:34;4.67;;;2.30;;
29938;SDS011;16799;50.844;5.304;2023-04-19T13:48:59;6.13;;;2.60;;
29938;SDS011;16799;50.844;5.304;2023-04-19T13:51:25;5.40;;;2.43;;
29938;SDS011;16799;50.844;5.304;2023-04-19T13:53:51;8.97;;;3.57;;
29938;SDS011;16799;50.844;5.304;2023-04-19T13:56:17;5.13;;;3.10;;
29938;SDS011;16799;50.844;5.304;2023-04-19T13:58:43;3.23;;;3.00;;
29938;SDS011;16799;50.844;5.304;2023-04-19T14:01:08;8.63;;;3.53;;
29938;SDS011;16799;50.844;5.304;2023-04-19T14:03:34;2.80;;;2.60;;
29938;SDS011;16799;50.844;5.304;2023-04-19T14:06:00;22.33;;;3.70;;
29938;SDS011;16799;50.844;5.304;2023-04-19T14:08:25;4.80;;;1.93;;
29938;SDS011;16799;50.844;5.304;2023-04-19T14:10:51;6.13;;;2.53;;
29938;SDS011;16799;50.844;5.304;2023-04-19T14:13:17;2.90;;;2.47;;
29938;SDS011;16799;50.844;5.304;2023-04-19T14:15:43;3.47;;;3.23;;
29938;SDS011;16799;50.844;5.304;2023-04-19T14:18:09;4.50;;;2.97;;
29938;SDS011;16799;50.844;5.304;2023-04-19T14:20:34;10.40;;;3.33;;
29938;SDS011;16799;50.844;5.304;2023-04-19T14:23:00;15.07;;;3.83;;
29938;SDS011;16799;50.844;5.304;2023-04-19T14:25:26;9.60;;;3.03;;
29938;SDS011;16799;50.844;5.304;2023-04-19T14:27:52;4.33;;;2.43;;
29938;SDS011;16799;50.844;5.304;2023-04-19T14:30:17;2.60;;;2.43;;
29938;SDS011;16799;50.844;5.304;2023-04-19T14:32:44;4.87;;;2.50;;
29938;SDS011;16799;50.844;5.304;2023-04-19T14:35:10;3.63;;;3.10;;
29938;SDS011;16799;50.844;5.304;2023-04-19T14:37:36;6.53;;;3.50;;
29938;SDS011;16799;50.844;5.304;2023-04-19T14:40:02;7.07;;;4.00;;
29938;SDS011;16799;50.844;5.304;2023-04-19T14:42:28;3.30;;;2.97;;
29938;SDS011;16799;50.844;5.304;2023-04-19T14:44:54;3.00;;;2.80;;
29938;SDS011;16799;50.844;5.304;2023-04-19T14:47:21;10.80;;;2.90;;
29938;SDS011;16799;50.844;5.304;2023-04-19T14:49:47;3.47;;;3.23;;